Time;durP1;ratioP1;P1;durP2;ratioP2;P2;SDS_P1;SDS_P2;PMS_P1;PMS_P2;Temp;Humidity;BMP_temperature;BMP_pressure;BME280_temperature;BME280_humidity;BME280_pressure;Samples;Min_cycle;Max_cycle;Signal;HPM_P1;HPM_P2
2023/01/28 00:01:46;;;;;;;15.70;12.57;;;;;;;2.07;100.00;102774.31;5096732;28;20035;-81
2023/01/28 00:04:12;;;;;;;15.50;12.70;;;;;;;2.08;100.00;102766.19;5069824;28;20110;-82
2023/01/28 00:06:38;;;;;;;14.47;12.47;;;;;;;2.07;100.00;102785.00;5082041;28;20084;-82
2023/01/28 00:09:03;;;;;;;14.30;11.73;;;;;;;2.07;100.00;102785.00;5096494;28;20024;-82
2023/01/28 00:11:28;;;;;;;14.13;11.70;;;;;;;2.09;100.00;102781.25;5083598;28;20034;-82
2023/01/28 00:13:54;;;;;;;14.10;11.93;;;;;;;2.04;100.00;102783.44;5080300;28;20036;-82
2023/01/28 00:16:25;;;;;;;14.60;12.30;;;;;;;2.01;100.00;102787.16;5082713;28;20069;-82
2023/01/28 00:18:50;;;;;;;13.07;11.60;;;;;;;2.04;100.00;102788.78;5093530;28;20028;-82
2023/01/28 00:21:16;;;;;;;13.47;11.60;;;;;;;2.06;100.00;102802.03;5080610;28;20063;-82
2023/01/28 00:23:43;;;;;;;14.40;12.30;;;;;;;2.07;100.00;102801.91;5096693;28;20027;-82
2023/01/28 00:26:12;;;;;;;14.50;11.70;;;;;;;2.08;100.00;102790.28;5096934;28;20023;-82
2023/01/28 00:28:38;;;;;;;13.63;11.50;;;;;;;1.98;100.00;102784.69;5098281;28;20032;-82
2023/01/28 00:31:08;;;;;;;14.10;11.87;;;;;;;2.05;100.00;102793.13;5098347;28;20031;-82
2023/01/28 00:33:34;;;;;;;14.63;12.10;;;;;;;1.99;100.00;102796.25;5104368;28;20506;-82
2023/01/28 00:36:01;;;;;;;14.63;12.67;;;;;;;1.97;100.00;102795.50;5096744;28;20027;-82
2023/01/28 00:38:27;;;;;;;15.10;12.83;;;;;;;2.00;100.00;102796.16;5095439;28;20020;-82
2023/01/28 00:40:53;;;;;;;15.47;12.80;;;;;;;1.96;100.00;102804.47;5099389;28;20028;-82
2023/01/28 00:43:19;;;;;;;14.87;12.57;;;;;;;1.97;100.00;102803.50;5100464;28;20513;-81
2023/01/28 00:45:44;;;;;;;15.07;12.97;;;;;;;1.97;100.00;102796.38;5084681;28;20042;-82
2023/01/28 00:48:10;;;;;;;15.50;13.23;;;;;;;1.95;100.00;102797.44;5102189;28;20023;-88
2023/01/28 00:50:35;;;;;;;15.60;12.63;;;;;;;1.97;100.00;102796.38;5111051;28;20051;-88
2023/01/28 00:53:01;;;;;;;15.53;12.87;;;;;;;2.00;100.00;102798.81;5111085;28;20143;-88
2023/01/28 00:55:27;;;;;;;15.57;13.00;;;;;;;1.99;100.00;102805.13;5104875;28;20046;-88
2023/01/28 00:57:52;;;;;;;15.23;13.03;;;;;;;2.01;100.00;102807.69;5111928;28;20043;-88
2023/01/28 01:00:20;;;;;;;16.03;12.73;;;;;;;1.94;100.00;102804.59;5111749;28;20055;-88
2023/01/28 01:02:46;;;;;;;15.57;12.60;;;;;;;2.02;100.00;102814.75;5111223;28;20547;-87
2023/01/28 01:05:12;;;;;;;15.10;12.77;;;;;;;2.04;100.00;102807.50;5109494;28;20111;-88
2023/01/28 01:07:43;;;;;;;15.67;13.37;;;;;;;1.98;100.00;102808.75;5111952;28;20030;-88
2023/01/28 01:10:11;;;;;;;15.40;13.10;;;;;;;2.06;100.00;102810.06;5107147;28;20501;-88
2023/01/28 01:12:38;;;;;;;14.60;12.27;;;;;;;1.99;100.00;102802.44;5108605;28;20028;-82
2023/01/28 01:15:09;;;;;;;15.37;12.87;;;;;;;2.03;100.00;102805.78;5100656;28;20031;-82
2023/01/28 01:17:40;;;;;;;15.20;12.80;;;;;;;2.01;100.00;102807.69;5102626;27;20027;-82
2023/01/28 01:20:07;;;;;;;15.27;13.03;;;;;;;2.01;100.00;102802.34;5098280;28;20026;-82
2023/01/28 01:22:35;;;;;;;16.30;13.40;;;;;;;2.04;100.00;102807.50;5098157;28;20126;-82
2023/01/28 01:25:00;;;;;;;14.63;12.83;;;;;;;2.02;100.00;102802.22;5099024;28;20032;-81
2023/01/28 01:27:26;;;;;;;15.60;13.00;;;;;;;2.07;100.00;102798.38;5101470;28;20058;-82
2023/01/28 01:29:51;;;;;;;14.93;12.50;;;;;;;2.08;100.00;102800.09;5099585;28;20031;-81
2023/01/28 01:32:17;;;;;;;14.63;12.50;;;;;;;2.02;100.00;102793.38;5105725;28;20031;-88
2023/01/28 01:34:43;;;;;;;16.37;13.33;;;;;;;1.93;100.00;102796.66;5090113;28;20494;-89
2023/01/28 01:37:09;;;;;;;15.97;13.63;;;;;;;1.93;100.00;102794.00;5102498;28;20023;-88
2023/01/28 01:39:35;;;;;;;15.33;12.63;;;;;;;1.96;100.00;102796.44;5105815;28;20019;-87
2023/01/28 01:42:00;;;;;;;16.30;13.70;;;;;;;1.98;100.00;102805.22;5097818;28;20047;-88
2023/01/28 01:44:50;;;;;;;16.20;13.60;;;;;;;1.98;100.00;102800.72;5108195;28;20031;-88
2023/01/28 01:47:17;;;;;;;16.23;13.50;;;;;;;1.93;100.00;102804.69;5112152;28;20043;-88
2023/01/28 01:49:43;;;;;;;14.60;12.70;;;;;;;1.92;100.00;102808.31;5108434;28;20467;-88
2023/01/28 01:52:17;;;;;;;15.40;12.70;;;;;;;1.97;100.00;102808.88;5093690;28;20024;-88
2023/01/28 01:54:45;;;;;;;15.33;12.93;;;;;;;2.02;100.00;102809.41;5101619;28;20034;-88
2023/01/28 01:57:15;;;;;;;14.77;11.77;;;;;;;1.90;100.00;102804.91;5109098;28;21103;-88
2023/01/28 01:59:43;;;;;;;14.60;12.53;;;;;;;1.90;100.00;102807.59;5109451;28;20040;-88
2023/01/28 02:02:10;;;;;;;15.10;12.80;;;;;;;1.85;100.00;102810.59;5108836;28;20069;-88
2023/01/28 02:04:39;;;;;;;14.83;13.00;;;;;;;1.83;100.00;102810.66;5075634;28;20104;-88
2023/01/28 02:07:07;;;;;;;14.40;12.50;;;;;;;1.79;100.00;102808.31;5108636;28;20407;-88
2023/01/28 02:09:35;;;;;;;14.40;12.73;;;;;;;1.74;100.00;102814.00;5106510;28;20012;-87
2023/01/28 02:12:07;;;;;;;14.30;12.37;;;;;;;1.80;100.00;102804.69;5110331;28;20080;-88
2023/01/28 02:14:37;;;;;;;13.73;11.87;;;;;;;1.81;100.00;102806.38;5109647;28;20024;-88
2023/01/28 02:17:03;;;;;;;15.60;12.90;;;;;;;1.80;100.00;102812.72;5107793;28;20029;-88
2023/01/28 02:19:49;;;;;;;15.03;12.87;;;;;;;1.88;100.00;102815.72;5109047;28;20401;-88
2023/01/28 02:22:25;;;;;;;16.97;12.70;;;;;;;1.84;100.00;102809.72;5106299;28;20042;-88
2023/01/28 02:25:28;;;;;;;14.80;11.73;;;;;;;1.92;100.00;102814.53;5096943;28;20115;-88
2023/01/28 02:27:56;;;;;;;14.10;12.37;;;;;;;1.87;100.00;102811.31;5041988;28;20947;-88
2023/01/28 02:30:32;;;;;;;14.83;12.60;;;;;;;1.85;100.00;102810.59;5106683;28;20104;-88
2023/01/28 02:33:13;;;;;;;14.27;12.00;;;;;;;1.84;100.00;102803.53;5094143;28;20031;-82
2023/01/28 02:35:48;;;;;;;13.57;11.77;;;;;;;1.84;100.00;102807.03;5098419;28;20165;-81
2023/01/28 02:38:27;;;;;;;14.60;12.50;;;;;;;1.81;100.00;102812.59;5095584;28;20024;-81
2023/01/28 02:41:01;;;;;;;14.10;11.43;;;;;;;1.83;100.00;102809.81;5120986;27;20030;-82
2023/01/28 02:43:33;;;;;;;14.13;11.27;;;;;;;1.77;100.00;102799.53;5099604;28;20361;-81
2023/01/28 02:48:46;;;;;;;12.90;11.17;;;;;;;1.77;100.00;102800.41;5100893;28;20081;-82
2023/01/28 02:51:48;;;;;;;13.20;11.53;;;;;;;1.77;100.00;102811.09;5098773;28;20043;-82
2023/01/28 02:54:33;;;;;;;12.30;10.97;;;;;;;1.78;100.00;102806.59;5088813;28;20040;-82
2023/01/28 02:57:33;;;;;;;12.47;10.90;;;;;;;1.61;98.90;102799.75;5098565;27;20126;-82
2023/01/28 03:00:09;;;;;;;10.70;9.33;;;;;;;1.68;97.58;102807.22;5096274;28;20047;-82
2023/01/28 03:02:53;;;;;;;11.80;10.50;;;;;;;1.69;98.42;102808.94;5099075;28;20040;-81
2023/01/28 03:05:36;;;;;;;12.20;10.57;;;;;;;1.75;98.93;102818.38;5098482;28;20055;-82
2023/01/28 03:09:21;;;;;;;10.80;9.70;;;;;;;1.65;99.16;102822.66;5098548;28;20092;-88
2023/01/28 03:38:59;;;;;;;14.55;12.38;;;;;;;1.39;100.00;102822.59;5099167;28;20046;-82
2023/01/28 03:41:25;;;;;;;15.30;13.63;;;;;;;1.34;100.00;102817.53;5095987;28;20039;-82
2023/01/28 03:43:52;;;;;;;16.37;13.37;;;;;;;1.37;100.00;102818.31;5097800;28;20020;-81
2023/01/28 03:46:18;;;;;;;16.93;14.07;;;;;;;1.46;100.00;102815.00;5098165;28;20061;-81
2023/01/28 03:48:44;;;;;;;18.20;14.80;;;;;;;1.39;100.00;102811.91;5095428;28;20145;-82
2023/01/28 03:51:10;;;;;;;17.37;14.33;;;;;;;1.36;100.00;102814.78;5098082;28;20028;-82
2023/01/28 03:53:37;;;;;;;17.27;14.67;;;;;;;1.41;100.00;102815.31;5097135;28;20137;-81
2023/01/28 03:56:02;;;;;;;18.30;14.97;;;;;;;1.42;100.00;102821.53;5094289;28;20170;-81
2023/01/28 03:58:55;;;;;;;17.13;14.00;;;;;;;1.41;100.00;102819.81;5078439;28;20085;-81
2023/01/28 04:01:20;;;;;;;18.53;15.33;;;;;;;1.32;100.00;102827.47;5096807;28;20043;-82
2023/01/28 04:03:46;;;;;;;16.47;13.97;;;;;;;1.27;100.00;102831.41;5096485;28;20409;-82
2023/01/28 04:06:11;;;;;;;18.23;14.67;;;;;;;1.23;100.00;102833.41;5095311;28;20063;-82
2023/01/28 04:08:36;;;;;;;17.50;14.70;;;;;;;1.23;100.00;102837.91;5080963;28;20027;-81
2023/01/28 04:11:14;;;;;;;17.50;14.93;;;;;;;1.22;100.00;102836.19;5061136;28;20031;-81
2023/01/28 04:13:43;;;;;;;18.47;15.60;;;;;;;1.16;100.00;102840.97;5083060;28;20107;-82
2023/01/28 04:16:13;;;;;;;18.30;15.43;;;;;;;1.09;100.00;102842.34;5102171;28;20038;-81
2023/01/28 04:18:38;;;;;;;17.33;14.63;;;;;;;1.15;100.00;102843.75;5084527;28;20038;-87
2023/01/28 04:21:04;;;;;;;19.30;15.57;;;;;;;1.17;100.00;102844.53;5098693;28;20407;-88
2023/01/28 04:23:29;;;;;;;17.83;15.13;;;;;;;1.14;100.00;102840.25;5109752;28;20028;-88
2023/01/28 04:25:55;;;;;;;17.53;14.70;;;;;;;1.08;100.00;102840.63;5106245;28;20527;-87
2023/01/28 04:28:21;;;;;;;18.13;15.27;;;;;;;1.07;100.00;102843.41;5106699;28;20024;-88
2023/01/28 04:30:46;;;;;;;19.27;16.07;;;;;;;1.16;100.00;102842.81;5111001;28;20492;-88
2023/01/28 04:33:12;;;;;;;18.37;15.67;;;;;;;1.15;100.00;102833.06;5110972;28;20027;-82
2023/01/28 04:35:38;;;;;;;19.07;15.43;;;;;;;1.23;100.00;102840.59;5100966;28;20445;-81
2023/01/28 04:38:03;;;;;;;18.10;14.90;;;;;;;1.20;100.00;102833.63;5102512;28;20115;-81
2023/01/28 04:40:29;;;;;;;18.77;15.43;;;;;;;1.08;100.00;102832.63;5071322;28;20127;-82
2023/01/28 04:42:55;;;;;;;17.10;14.23;;;;;;;1.14;100.00;102831.34;5086014;28;20127;-81
2023/01/28 04:45:21;;;;;;;17.43;15.00;;;;;;;1.05;100.00;102831.94;5100972;28;20168;-81
2023/01/28 04:47:47;;;;;;;18.30;15.20;;;;;;;1.11;100.00;102836.91;5099891;28;20402;-82
2023/01/28 04:50:12;;;;;;;17.97;14.57;;;;;;;1.14;100.00;102837.56;5103893;28;20043;-82
2023/01/28 04:52:37;;;;;;;18.50;15.10;;;;;;;1.15;100.00;102841.09;5089671;28;20027;-88
2023/01/28 04:55:03;;;;;;;16.63;14.07;;;;;;;1.11;100.00;102845.75;5107513;28;20029;-88
2023/01/28 04:57:29;;;;;;;17.17;14.37;;;;;;;1.19;100.00;102847.94;5103003;28;20030;-88
2023/01/28 04:59:54;;;;;;;16.87;13.93;;;;;;;1.16;100.00;102846.31;5110551;28;20055;-88
2023/01/28 05:02:20;;;;;;;17.83;14.53;;;;;;;1.18;100.00;102849.75;5106425;28;20387;-81
2023/01/28 05:04:45;;;;;;;16.03;13.70;;;;;;;1.18;100.00;102851.56;5082184;28;20541;-82
2023/01/28 05:07:10;;;;;;;14.60;12.80;;;;;;;1.16;100.00;102858.81;5101670;28;20036;-87
2023/01/28 05:09:36;;;;;;;14.77;12.53;;;;;;;1.26;100.00;102848.38;5107491;28;20039;-88
2023/01/28 05:12:02;;;;;;;13.27;11.60;;;;;;;1.20;100.00;102851.44;5094934;28;20057;-87
2023/01/28 05:14:27;;;;;;;14.50;12.37;;;;;;;1.27;100.00;102855.44;5106614;28;20035;-88
2023/01/28 05:16:52;;;;;;;14.17;11.83;;;;;;;1.22;100.00;102863.75;5090023;28;20494;-88
2023/01/28 05:19:18;;;;;;;13.53;11.53;;;;;;;1.18;100.00;102867.56;5112051;28;20011;-88
2023/01/28 05:21:43;;;;;;;12.63;10.90;;;;;;;1.18;99.65;102856.91;5102490;28;20499;-88
2023/01/28 05:24:09;;;;;;;11.80;10.37;;;;;;;1.23;99.32;102853.94;5109401;28;20019;-88
2023/01/28 05:26:36;;;;;;;12.47;10.93;;;;;;;1.21;99.40;102854.03;5103505;28;20479;-87
2023/01/28 05:29:01;;;;;;;12.37;11.07;;;;;;;1.21;100.00;102853.16;5097803;28;20011;-82
2023/01/28 05:31:26;;;;;;;12.77;11.03;;;;;;;1.26;100.00;102853.72;5081760;28;20076;-82
2023/01/28 05:33:52;;;;;;;12.53;10.90;;;;;;;1.24;100.00;102845.81;5097941;28;21771;-82
2023/01/28 05:36:18;;;;;;;13.30;11.13;;;;;;;1.25;100.00;102844.00;5082137;28;20040;-81
2023/01/28 05:38:43;;;;;;;13.07;11.40;;;;;;;1.16;97.31;102842.81;5105275;28;20020;-81
2023/01/28 05:41:08;;;;;;;13.83;11.93;;;;;;;1.17;99.13;102842.69;5100611;28;20076;-82
2023/01/28 05:43:34;;;;;;;13.80;11.87;;;;;;;1.10;97.84;102843.19;5099575;28;20036;-82
2023/01/28 05:45:59;;;;;;;14.77;11.53;;;;;;;1.06;95.19;102837.22;5099262;28;20131;-82
2023/01/28 05:48:24;;;;;;;12.60;11.30;;;;;;;1.05;95.75;102835.50;5096701;28;20036;-82
2023/01/28 05:50:50;;;;;;;14.07;11.93;;;;;;;1.05;96.04;102843.50;5104440;28;20050;-81
2023/01/28 05:53:15;;;;;;;14.60;11.83;;;;;;;0.96;95.66;102852.09;5098516;28;20041;-82
2023/01/28 05:55:41;;;;;;;13.00;11.20;;;;;;;0.99;96.21;102846.56;5100193;28;21746;-81
2023/01/28 05:58:06;;;;;;;14.33;11.97;;;;;;;1.02;96.08;102851.72;5100923;28;20090;-81
2023/01/28 06:00:32;;;;;;;15.03;12.80;;;;;;;1.05;97.04;102856.84;5096495;28;21561;-82
2023/01/28 06:02:57;;;;;;;14.90;12.67;;;;;;;0.98;96.66;102855.50;5101059;28;20121;-82
2023/01/28 06:05:22;;;;;;;15.30;13.13;;;;;;;0.92;96.17;102851.44;5097355;28;20073;-81
2023/01/28 06:07:48;;;;;;;16.17;12.90;;;;;;;1.06;97.16;102857.69;5098513;28;20055;-81
2023/01/28 06:10:16;;;;;;;15.00;12.73;;;;;;;1.01;98.02;102853.50;5099288;28;20027;-82
2023/01/28 06:12:42;;;;;;;15.63;13.03;;;;;;;0.96;98.54;102852.94;5097112;28;20486;-82
2023/01/28 06:15:08;;;;;;;15.97;13.00;;;;;;;1.06;99.49;102850.56;5069415;28;20057;-81
2023/01/28 06:17:33;;;;;;;15.30;13.03;;;;;;;0.92;96.41;102859.44;5098645;28;20834;-81
2023/01/28 06:19:59;;;;;;;15.20;12.53;;;;;;;0.96;95.74;102862.78;5067010;28;20047;-81
2023/01/28 06:22:24;;;;;;;14.80;12.30;;;;;;;0.90;96.19;102857.81;5081542;28;20084;-81
2023/01/28 06:24:49;;;;;;;14.93;12.77;;;;;;;0.94;95.26;102856.66;5090327;28;20123;-87
2023/01/28 06:27:15;;;;;;;15.70;13.20;;;;;;;0.91;96.15;102859.53;5106101;28;20035;-88
2023/01/28 06:29:40;;;;;;;15.33;12.63;;;;;;;0.97;97.13;102853.81;5088752;28;20088;-88
2023/01/28 06:32:06;;;;;;;16.53;13.33;;;;;;;0.95;96.83;102869.94;5108113;28;20110;-88
2023/01/28 06:34:31;;;;;;;14.73;12.83;;;;;;;0.98;96.27;102866.19;5089081;28;20036;-87
2023/01/28 06:36:57;;;;;;;15.47;13.00;;;;;;;0.99;96.44;102865.25;5088810;28;20031;-81
2023/01/28 06:39:22;;;;;;;15.90;13.40;;;;;;;0.94;97.47;102857.53;5099106;28;20040;-82
2023/01/28 06:41:49;;;;;;;17.23;13.43;;;;;;;0.95;97.40;102863.72;5069257;28;20071;-82
2023/01/28 06:44:15;;;;;;;15.37;13.03;;;;;;;0.90;95.48;102869.38;5096981;28;20118;-81
2023/01/28 06:46:41;;;;;;;14.77;12.87;;;;;;;0.93;94.90;102873.66;5098149;28;20024;-81
2023/01/28 06:49:06;;;;;;;15.37;13.00;;;;;;;0.93;94.50;102871.84;5086785;28;20024;-82
2023/01/28 06:51:32;;;;;;;15.00;12.50;;;;;;;0.89;94.29;102869.47;5098337;28;20116;-81
2023/01/28 06:53:57;;;;;;;16.20;13.30;;;;;;;0.82;96.51;102864.53;5098685;28;20016;-82
2023/01/28 06:56:23;;;;;;;15.10;12.70;;;;;;;0.85;96.51;102866.13;5102412;28;20434;-82
2023/01/28 06:58:48;;;;;;;15.10;13.10;;;;;;;0.92;96.63;102870.13;5094714;28;20047;-81
2023/01/28 07:01:13;;;;;;;15.50;13.30;;;;;;;0.92;96.65;102872.78;5078783;28;21122;-82
2023/01/28 07:03:39;;;;;;;17.40;13.50;;;;;;;0.84;95.21;102883.09;5084950;28;20440;-88
2023/01/28 07:06:05;;;;;;;16.97;13.20;;;;;;;0.90;96.23;102885.41;5102306;28;20024;-88
2023/01/28 07:08:30;;;;;;;16.30;13.10;;;;;;;0.77;96.94;102879.13;5106006;28;20031;-88
2023/01/28 07:10:55;;;;;;;16.97;13.50;;;;;;;0.77;96.43;102879.97;5105477;28;20082;-87
2023/01/28 07:13:21;;;;;;;16.10;13.70;;;;;;;0.81;96.61;102885.97;5096533;28;20027;-87
2023/01/28 07:15:47;;;;;;;15.63;13.03;;;;;;;0.84;96.35;102888.44;5102164;28;20038;-87
2023/01/28 07:18:13;;;;;;;16.90;13.17;;;;;;;0.75;95.60;102892.56;5109875;28;20031;-87
2023/01/28 07:20:38;;;;;;;16.00;13.30;;;;;;;0.70;95.83;102899.16;5107394;28;20032;-87
2023/01/28 07:23:03;;;;;;;16.80;13.17;;;;;;;0.67;96.75;102902.88;5083760;28;20058;-87
2023/01/28 07:25:29;;;;;;;16.77;13.70;;;;;;;0.73;96.60;102902.47;5109301;28;20024;-87
2023/01/28 07:27:55;;;;;;;16.40;13.70;;;;;;;0.71;95.49;102904.38;5109859;28;20676;-87
2023/01/28 07:30:21;;;;;;;15.90;13.63;;;;;;;0.63;94.85;102906.69;5106316;28;20047;-87
2023/01/28 07:32:46;;;;;;;16.37;13.43;;;;;;;0.59;93.60;102910.47;5103103;28;20120;-87
2023/01/28 07:35:12;;;;;;;17.73;13.37;;;;;;;0.71;94.64;102912.38;5106633;28;20055;-87
2023/01/28 07:37:38;;;;;;;15.77;13.60;;;;;;;0.67;95.33;102919.72;5108781;28;20020;-87
2023/01/28 07:40:04;;;;;;;15.67;13.37;;;;;;;0.65;94.31;102924.31;5108671;28;20292;-87
2023/01/28 07:42:29;;;;;;;15.23;12.80;;;;;;;0.64;92.60;102917.25;5109767;28;20348;-86
2023/01/28 07:44:55;;;;;;;15.63;12.33;;;;;;;0.70;92.64;102918.66;5107121;28;20066;-87
2023/01/28 07:47:20;;;;;;;15.73;12.97;;;;;;;0.73;93.58;102915.78;5103100;28;20066;-87
2023/01/28 07:49:46;;;;;;;15.13;12.57;;;;;;;0.74;93.88;102922.00;5105423;28;20039;-87
2023/01/28 07:52:12;;;;;;;15.50;12.80;;;;;;;0.73;94.20;102917.63;5104777;28;20016;-88
2023/01/28 07:54:37;;;;;;;17.03;13.97;;;;;;;0.78;94.20;102924.38;5108668;28;21054;-88
2023/01/28 07:57:08;;;;;;;16.57;13.77;;;;;;;0.76;93.55;102922.75;5101410;28;20111;-87
2023/01/28 07:59:35;;;;;;;15.63;13.00;;;;;;;0.79;94.07;102923.44;5101824;28;20052;-87
2023/01/28 08:02:01;;;;;;;17.70;14.37;;;;;;;0.77;93.49;102922.66;5107804;28;20047;-88
2023/01/28 08:04:26;;;;;;;16.50;13.33;;;;;;;0.74;93.44;102912.19;5106766;28;20039;-87
2023/01/28 08:06:51;;;;;;;15.87;13.23;;;;;;;0.79;92.64;102920.75;5104551;28;20094;-88
2023/01/28 08:09:17;;;;;;;15.13;12.87;;;;;;;0.77;93.41;102911.13;5104417;28;20107;-88
2023/01/28 08:11:42;;;;;;;15.53;12.80;;;;;;;0.77;93.99;102930.66;5104937;28;20846;-88
2023/01/28 08:14:09;;;;;;;16.37;13.70;;;;;;;0.79;94.78;102942.13;5085849;28;20111;-88
2023/01/28 08:16:35;;;;;;;16.63;13.53;;;;;;;0.84;94.62;102937.34;5108624;28;20024;-88
2023/01/28 08:19:01;;;;;;;15.50;13.03;;;;;;;0.89;95.23;102945.06;5108732;28;20016;-88
2023/01/28 08:21:27;;;;;;;16.53;12.97;;;;;;;0.88;95.91;102951.34;5101532;28;20061;-88
2023/01/28 08:23:53;;;;;;;16.60;13.13;;;;;;;0.89;95.17;102950.41;5105569;28;20280;-88
2023/01/28 08:26:18;;;;;;;16.03;13.53;;;;;;;0.91;94.77;102958.31;5100327;28;20035;-88
2023/01/28 08:28:44;;;;;;;16.27;13.47;;;;;;;0.99;94.52;102964.00;5098486;28;20024;-88
2023/01/28 08:31:09;;;;;;;16.13;13.23;;;;;;;1.03;94.98;102967.34;5108902;28;20034;-88
2023/01/28 08:33:34;;;;;;;16.33;13.60;;;;;;;1.03;95.43;102962.88;5109952;28;20483;-88
2023/01/28 08:36:03;;;;;;;16.57;13.50;;;;;;;1.05;94.83;102958.31;5109460;28;20031;-87
2023/01/28 08:38:29;;;;;;;16.17;13.73;;;;;;;1.09;95.51;102959.81;5103245;28;20388;-88
2023/01/28 08:40:56;;;;;;;16.43;13.83;;;;;;;1.23;96.22;102966.09;5095365;28;20039;-87
2023/01/28 08:43:22;;;;;;;18.33;13.63;;;;;;;1.23;96.61;102966.09;5103595;28;20114;-88
2023/01/28 08:45:49;;;;;;;16.43;13.53;;;;;;;1.27;96.03;102965.78;5100536;28;20039;-88
2023/01/28 08:48:16;;;;;;;15.83;13.70;;;;;;;1.18;95.36;102964.59;5105552;28;20069;-88
2023/01/28 08:50:42;;;;;;;16.10;13.50;;;;;;;1.22;94.55;102970.56;5104491;28;20027;-88
2023/01/28 08:53:19;;;;;;;16.97;13.80;;;;;;;1.26;94.93;102973.91;5115095;28;20023;-87
2023/01/28 08:55:45;;;;;;;16.37;13.53;;;;;;;1.25;94.55;102975.72;5099300;28;21904;-88
2023/01/28 08:58:16;;;;;;;17.73;13.77;;;;;;;1.28;94.72;102980.88;5096312;28;20364;-88
2023/01/28 09:00:42;;;;;;;16.50;13.70;;;;;;;1.28;94.66;102969.31;5102189;28;20081;-88
2023/01/28 09:03:08;;;;;;;17.37;13.73;;;;;;;1.31;95.20;102974.47;5105530;28;20100;-88
2023/01/28 09:05:34;;;;;;;16.80;13.70;;;;;;;1.39;95.18;102969.50;5109748;28;20039;-87
2023/01/28 09:08:02;;;;;;;17.33;14.13;;;;;;;1.29;94.16;102982.59;5111383;28;20024;-88
2023/01/28 09:10:27;;;;;;;16.40;13.87;;;;;;;1.19;93.76;102986.78;5093684;28;20042;-88
2023/01/28 09:12:52;;;;;;;16.67;14.27;;;;;;;1.21;95.10;102992.91;5104290;28;20554;-88
2023/01/28 09:15:18;;;;;;;17.43;14.60;;;;;;;1.21;94.92;102992.03;5106387;28;20052;-88
2023/01/28 09:17:43;;;;;;;16.87;14.20;;;;;;;1.22;94.92;102999.09;5086666;28;20494;-88
2023/01/28 09:20:10;;;;;;;16.60;14.37;;;;;;;1.18;95.19;103007.31;5112503;28;20022;-88
2023/01/28 09:22:35;;;;;;;16.57;14.23;;;;;;;1.18;94.90;102999.31;5088756;28;20104;-88
2023/01/28 09:25:01;;;;;;;16.63;14.07;;;;;;;1.15;94.83;102996.78;5092283;28;20076;-88
2023/01/28 09:27:26;;;;;;;16.67;14.70;;;;;;;1.23;94.80;103003.50;5092860;28;20034;-88
2023/01/28 09:29:51;;;;;;;17.10;14.30;;;;;;;1.31;95.26;103006.53;5100668;28;20031;-87
2023/01/28 09:32:17;;;;;;;16.80;14.70;;;;;;;1.33;95.80;103009.94;5110147;28;20027;-88
2023/01/28 09:34:43;;;;;;;17.07;14.97;;;;;;;1.42;97.64;103004.03;5105636;28;20028;-87
2023/01/28 09:37:10;;;;;;;17.60;15.10;;;;;;;1.41;97.28;103017.47;5112812;28;20103;-87
2023/01/28 09:39:35;;;;;;;17.97;14.70;;;;;;;1.39;95.70;103014.91;5110515;28;20028;-86
2023/01/28 09:42:26;;;;;;;17.20;14.97;;;;;;;1.40;96.22;103021.97;5106029;28;20034;-81
2023/01/28 09:45:16;;;;;;;17.30;15.13;;;;;;;1.45;96.04;103016.31;5093891;28;20058;-81
2023/01/28 09:47:49;;;;;;;16.23;14.23;;;;;;;1.32;94.64;103018.94;5097711;28;20076;-81
2023/01/28 09:50:22;;;;;;;16.60;14.40;;;;;;;1.33;95.53;103023.31;5093873;28;20119;-81
2023/01/28 09:52:47;;;;;;;16.97;14.47;;;;;;;1.41;96.11;103018.31;5099807;28;20019;-81
2023/01/28 09:55:30;;;;;;;17.37;15.10;;;;;;;1.38;95.57;103023.88;5096228;28;20034;-87
2023/01/28 09:57:56;;;;;;;16.60;14.80;;;;;;;1.17;94.10;103021.59;5109302;28;20119;-86
2023/01/28 10:00:26;;;;;;;16.33;14.57;;;;;;;1.13;93.77;103025.44;5105252;28;20127;-86
2023/01/28 10:03:11;;;;;;;16.93;14.17;;;;;;;1.25;94.09;103049.63;5110088;28;20031;-87
2023/01/28 10:05:45;;;;;;;17.50;14.30;;;;;;;1.27;94.67;103039.72;5103836;28;20125;-87
2023/01/28 10:08:29;;;;;;;15.87;13.73;;;;;;;1.24;92.98;103042.56;5111757;28;20486;-87
2023/01/28 10:11:04;;;;;;;15.90;13.88;;;;;;;1.29;94.26;103048.50;5110342;28;20481;-87
2023/01/28 10:13:42;;;;;;;16.00;13.60;;;;;;;1.25;95.67;103044.28;5100559;28;20028;-87
2023/01/28 10:16:33;;;;;;;15.37;13.40;;;;;;;1.11;94.20;103054.03;5102585;28;20038;-86
2023/01/28 10:19:05;;;;;;;16.90;13.57;;;;;;;1.05;94.23;103051.75;5107852;28;20076;-86
2023/01/28 10:21:45;;;;;;;16.70;13.07;;;;;;;0.98;94.78;103045.03;5112207;28;20063;-86
2023/01/28 10:24:21;;;;;;;16.00;13.63;;;;;;;1.01;95.18;103039.53;5097496;28;20027;-87
2023/01/28 10:26:47;;;;;;;16.07;13.57;;;;;;;1.12;95.17;103038.88;5103827;28;20036;-86
2023/01/28 10:29:17;;;;;;;16.50;14.57;;;;;;;1.09;94.96;103047.94;5083666;28;20016;-86
2023/01/28 10:31:52;;;;;;;15.90;13.43;;;;;;;1.14;94.06;103043.16;5106631;28;20047;-86
2023/01/28 10:34:18;;;;;;;16.03;13.53;;;;;;;1.05;93.50;103037.53;5126623;27;20023;-86
2023/01/28 10:36:44;;;;;;;16.10;13.13;;;;;;;1.03;93.69;103034.94;5110950;28;20020;-86
2023/01/28 10:39:14;;;;;;;15.53;13.67;;;;;;;0.94;95.05;103038.19;5110117;28;20922;-86
2023/01/28 10:41:39;;;;;;;15.97;13.53;;;;;;;1.02;95.58;103030.59;5104549;28;20918;-86
2023/01/28 10:44:12;;;;;;;16.70;13.90;;;;;;;1.06;95.08;103028.56;5088349;28;20028;-86
2023/01/28 10:46:39;;;;;;;15.83;13.40;;;;;;;1.20;95.23;103035.72;5104538;28;20028;-86
2023/01/28 10:49:13;;;;;;;16.07;13.70;;;;;;;1.23;93.23;103036.38;5102876;28;20427;-86
2023/01/28 10:51:41;;;;;;;16.30;13.23;;;;;;;1.33;93.41;103036.66;5099945;28;20055;-86
2023/01/28 10:54:24;;;;;;;16.37;13.53;;;;;;;1.38;93.18;103029.22;5105554;28;21689;-86
2023/01/28 10:56:54;;;;;;;16.70;13.87;;;;;;;1.37;93.73;103026.66;5095235;28;20130;-86
2023/01/28 10:59:22;;;;;;;15.23;13.00;;;;;;;1.49;93.41;103025.88;5104599;28;20089;-86
2023/01/28 11:01:56;;;;;;;15.57;13.37;;;;;;;1.44;92.85;103028.84;5105160;28;20032;-86
2023/01/28 11:04:25;;;;;;;16.40;14.05;;;;;;;1.44;93.04;103020.81;5098505;28;20106;-86
2023/01/28 11:06:59;;;;;;;16.50;13.67;;;;;;;1.47;92.32;103025.97;5111569;28;20024;-87
2023/01/28 11:09:28;;;;;;;15.20;13.25;;;;;;;1.51;92.95;103027.47;5108284;28;20024;-87
2023/01/28 11:11:53;;;;;;;17.23;14.57;;;;;;;1.46;92.77;103020.72;5109785;28;20415;-86
2023/01/28 11:14:20;;;;;;;16.53;13.93;;;;;;;1.45;92.17;103019.84;5086524;28;20032;-86
2023/01/28 11:16:47;;;;;;;15.77;13.60;;;;;;;1.47;93.18;103012.59;5103853;28;20102;-81
2023/01/28 11:19:12;;;;;;;17.40;14.50;;;;;;;1.46;93.03;103012.72;5096672;28;20517;-81
2023/01/28 11:21:38;;;;;;;15.73;13.60;;;;;;;1.48;93.06;103013.44;5095182;28;20070;-81
2023/01/28 11:24:13;;;;;;;17.07;13.93;;;;;;;1.56;92.39;103000.44;5094755;28;20027;-81
2023/01/28 11:26:44;;;;;;;16.10;12.87;;;;;;;1.55;91.82;102993.41;5096967;28;20031;-81
2023/01/28 11:29:31;;;;;;;14.97;13.30;;;;;;;1.83;92.70;103000.47;5103171;28;20051;-86
2023/01/28 11:31:58;;;;;;;12.30;10.73;;;;;;;1.91;92.16;102993.78;5105591;28;21001;-86
2023/01/28 11:34:29;;;;;;;11.30;9.70;;;;;;;1.91;91.38;102985.75;5105265;28;20383;-86
2023/01/28 11:37:03;;;;;;;10.33;9.13;;;;;;;1.97;90.65;102990.66;5107768;28;20049;-86
2023/01/28 11:39:28;;;;;;;10.07;8.90;;;;;;;2.00;90.42;102985.16;5106034;28;20016;-86
2023/01/28 11:42:03;;;;;;;10.07;8.87;;;;;;;1.85;90.60;102981.66;5107473;28;20031;-87
2023/01/28 11:44:29;;;;;;;;;;;;;;;2.07;91.42;102975.75;5108928;28;20101;-86
2023/01/28 11:47:00;;;;;;;9.87;7.87;;;;;;;2.03;90.05;102966.22;5105197;28;19908;-86
2023/01/28 11:49:44;;;;;;;10.03;8.13;;;;;;;2.14;89.95;102952.97;5104211;28;20016;-86
2023/01/28 11:52:28;;;;;;;9.77;8.30;;;;;;;2.37;88.21;102939.84;5107044;28;20078;-87